createdAt,value
2024-01-22T00:01:22.950Z,101171.81
2024-01-22T00:04:10.157Z,101154.72
2024-01-22T00:06:57.071Z,101136.00
2024-01-22T00:09:43.794Z,101124.75
2024-01-22T00:12:32.390Z,101128.88
2024-01-22T00:15:19.532Z,101130.38
2024-01-22T00:18:06.786Z,101126.47
2024-01-22T00:20:53.626Z,101133.91
2024-01-22T00:23:40.833Z,101128.09
2024-01-22T00:26:27.415Z,101123.38
2024-01-22T00:29:15.688Z,101110.69
2024-01-22T00:32:02.404Z,101098.97
2024-01-22T00:34:49.405Z,101086.94
2024-01-22T00:37:36.167Z,101075.63
2024-01-22T00:40:23.046Z,101073.41
2024-01-22T00:43:09.836Z,101048.84
2024-01-22T00:45:58.579Z,101057.13
2024-01-22T00:48:45.479Z,101058.25
2024-01-22T00:51:32.802Z,101065.88
2024-01-22T00:54:20.671Z,101061.22
2024-01-22T00:57:07.235Z,101059.72
2024-01-22T01:02:41.934Z,101035.84
2024-01-22T01:05:28.656Z,101042.38
2024-01-22T01:08:15.525Z,101029.09
2024-01-22T01:11:03.076Z,101024.41
2024-01-22T01:13:49.839Z,101021.16
2024-01-22T01:16:36.743Z,101012.31
2024-01-22T01:19:25.083Z,100983.38
2024-01-22T01:22:11.979Z,101002.16
2024-01-22T01:24:58.670Z,100993.19
2024-01-22T01:27:45.630Z,100982.91
2024-01-22T01:30:32.771Z,100978.91
2024-01-22T01:33:19.711Z,100973.19
2024-01-22T01:36:08.243Z,100970.34
2024-01-22T01:38:55.100Z,100973.25
2024-01-22T01:41:41.750Z,100977.78
2024-01-22T01:44:49.627Z,100960.78
2024-01-22T01:47:36.660Z,100952.19
2024-01-22T01:50:24.427Z,100951.13
2024-01-22T01:53:12.985Z,100951.25
2024-01-22T01:56:00.139Z,100951.03
2024-01-22T01:58:47.267Z,100944.34
2024-01-22T02:01:34.062Z,100923.44
2024-01-22T02:04:20.772Z,100916.53
2024-01-22T02:07:07.645Z,100924.38
2024-01-22T02:09:56.176Z,100907.00
2024-01-22T02:12:42.954Z,100907.00
2024-01-22T02:15:29.713Z,100910.59
2024-01-22T02:18:16.887Z,100905.34
2024-01-22T02:21:03.675Z,100892.31
2024-01-22T02:23:51.943Z,100876.53
2024-01-22T02:26:38.590Z,100864.81
2024-01-22T02:29:25.658Z,100871.41
2024-01-22T02:32:12.387Z,100863.81
2024-01-22T02:34:59.182Z,100858.34
2024-01-22T02:37:46.514Z,100864.25
2024-01-22T02:40:34.543Z,100856.66
2024-01-22T02:43:21.313Z,100851.84
2024-01-22T02:46:08.247Z,100844.63
2024-01-22T02:48:55.414Z,100837.81
2024-01-22T02:51:44.423Z,100838.22
2024-01-22T02:54:30.946Z,100820.91
2024-01-22T02:57:19.370Z,100835.97
2024-01-22T03:00:08.761Z,100800.28
2024-01-22T03:02:55.555Z,100807.72
2024-01-22T03:05:43.008Z,100787.44
2024-01-22T03:08:30.019Z,100779.97
2024-01-22T03:11:16.970Z,100791.47
2024-01-22T03:14:05.259Z,100781.53
2024-01-22T03:16:52.029Z,100779.66
2024-01-22T03:19:39.148Z,100772.72
2024-01-22T03:22:25.931Z,100751.81
2024-01-22T03:25:15.415Z,100754.81
2024-01-22T03:28:01.998Z,100759.91
2024-01-22T03:30:50.368Z,100735.69
2024-01-22T03:33:37.126Z,100734.69
2024-01-22T03:36:25.232Z,100740.88
2024-01-22T03:39:13.862Z,100735.16
2024-01-22T03:42:00.750Z,100721.09
2024-01-22T03:44:47.953Z,100727.72
2024-01-22T03:47:35.979Z,100714.19
2024-01-22T03:50:22.920Z,100706.59
2024-01-22T03:53:09.642Z,100705.06
2024-01-22T03:55:56.563Z,100714.78
2024-01-22T03:58:43.439Z,100716.22
2024-01-22T04:01:30.375Z,100724.31
2024-01-22T04:04:18.685Z,100733.81
2024-01-22T04:07:05.704Z,100728.19
2024-01-22T04:09:52.842Z,100717.44
2024-01-22T04:12:40.488Z,100718.72
2024-01-22T04:15:27.484Z,100664.50
2024-01-22T04:18:14.623Z,100703.53
2024-01-22T04:21:03.060Z,100661.28
2024-01-22T04:23:49.613Z,100640.84
2024-01-22T04:26:36.460Z,100656.91
2024-01-22T04:29:23.330Z,100646.94
2024-01-22T04:32:10.216Z,100635.72
2024-01-22T04:34:57.039Z,100660.72
2024-01-22T04:37:45.496Z,100673.03
2024-01-22T04:40:32.473Z,100658.22
2024-01-22T04:43:23.163Z,100634.97
2024-01-22T04:46:10.348Z,100623.59
2024-01-22T04:48:57.155Z,100619.31
2024-01-22T04:51:44.857Z,100625.72
2024-01-22T04:54:32.899Z,100624.16
2024-01-22T04:57:20.067Z,100622.47
2024-01-22T05:00:08.632Z,100632.78
2024-01-22T05:02:57.212Z,100612.44
2024-01-22T05:05:45.219Z,100575.81
2024-01-22T05:08:32.028Z,100524.44
2024-01-22T05:11:20.402Z,100488.38
2024-01-22T05:14:06.977Z,100495.44
2024-01-22T05:16:53.871Z,100509.63
2024-01-22T05:19:40.732Z,100489.06
2024-01-22T05:22:27.513Z,100478.28
2024-01-22T05:25:14.519Z,100460.34
2024-01-22T05:28:02.976Z,100473.38
2024-01-22T05:30:49.575Z,100495.03
2024-01-22T05:33:36.557Z,100478.56
2024-01-22T05:36:23.446Z,100471.97
2024-01-22T05:39:10.226Z,100450.44
2024-01-22T05:41:57.127Z,100443.38
2024-01-22T05:44:45.465Z,100410.50
2024-01-22T05:47:32.973Z,100406.06
2024-01-22T05:50:19.879Z,100418.19
2024-01-22T05:53:07.061Z,100407.25
2024-01-22T05:55:53.796Z,100418.47
2024-01-22T05:58:40.456Z,100413.47
2024-01-22T06:01:31.135Z,100397.59
2024-01-22T06:04:17.747Z,100409.25
2024-01-22T06:07:06.162Z,100420.31
2024-01-22T06:09:59.146Z,100416.41
2024-01-22T06:12:55.008Z,100416.81
2024-01-22T06:15:42.675Z,100402.38
2024-01-22T06:18:31.145Z,100409.94
2024-01-22T06:21:18.030Z,100408.06
2024-01-22T06:24:05.648Z,100406.31
2024-01-22T06:26:52.473Z,100400.03
2024-01-22T06:29:39.712Z,100395.72
2024-01-22T06:32:28.588Z,100397.72
2024-01-22T06:35:18.147Z,100399.72
2024-01-22T06:38:06.838Z,100397.63
2024-01-22T06:40:53.639Z,100383.56
2024-01-22T06:43:40.863Z,100382.81
2024-01-22T06:46:27.554Z,100385.34
2024-01-22T06:49:14.534Z,100390.13
2024-01-22T06:52:02.832Z,100375.88
2024-01-22T06:54:49.405Z,100394.16
2024-01-22T06:57:36.321Z,100384.50
2024-01-22T07:00:23.914Z,100376.78
2024-01-22T07:03:10.673Z,100360.31
2024-01-22T07:05:57.670Z,100353.66
2024-01-22T07:08:45.658Z,100340.25
2024-01-22T07:11:32.696Z,100351.63
2024-01-22T07:14:19.381Z,100345.09
2024-01-22T07:17:06.595Z,100354.06
2024-01-22T07:19:54.317Z,100348.69
2024-01-22T07:22:43.605Z,100339.25
2024-01-22T07:25:35.685Z,100319.72
2024-01-22T07:28:22.414Z,100328.19
2024-01-22T07:31:09.150Z,100337.81
2024-01-22T07:33:56.620Z,100305.63
2024-01-22T07:36:43.828Z,100315.41
2024-01-22T07:39:31.024Z,100318.19
2024-01-22T07:42:19.216Z,100306.53
2024-01-22T07:45:07.356Z,100264.81
2024-01-22T07:47:54.552Z,100301.38
2024-01-22T07:50:41.379Z,100290.78
2024-01-22T07:53:28.653Z,100291.13
2024-01-22T07:56:15.602Z,100282.41
2024-01-22T07:59:05.021Z,100284.09
2024-01-22T08:01:51.739Z,100286.13
2024-01-22T08:04:39.045Z,100293.03
2024-01-22T08:07:25.793Z,100280.63
2024-01-22T08:10:13.979Z,100284.44
2024-01-22T08:13:00.682Z,100291.63
2024-01-22T08:15:49.475Z,100296.44
2024-01-22T08:18:36.489Z,100285.53
2024-01-22T08:21:23.177Z,100289.63
2024-01-22T08:24:10.159Z,100283.69
2024-01-22T08:26:57.368Z,100292.81
2024-01-22T08:29:44.121Z,100288.16
2024-01-22T08:32:32.549Z,100279.28
2024-01-22T08:35:20.614Z,100284.06
2024-01-22T08:38:07.362Z,100278.13
2024-01-22T08:40:54.186Z,100286.38
2024-01-22T08:43:41.413Z,100279.00
2024-01-22T08:46:28.390Z,100281.59
2024-01-22T08:49:16.594Z,100271.75
2024-01-22T08:52:04.607Z,100266.59
2024-01-22T08:54:51.475Z,100262.78
2024-01-22T08:57:38.553Z,100266.66
2024-01-22T09:00:25.962Z,100265.97
2024-01-22T09:03:12.831Z,100257.63
2024-01-22T09:06:01.505Z,100261.78
2024-01-22T09:08:47.984Z,100264.56
2024-01-22T09:11:34.825Z,100253.81
2024-01-22T09:14:21.887Z,100259.81
2024-01-22T09:17:08.698Z,100257.09
2024-01-22T09:19:55.536Z,100259.31
2024-01-22T09:22:43.975Z,100272.25
2024-01-22T09:25:30.655Z,100252.81
2024-01-22T09:28:17.407Z,100229.09
2024-01-22T09:31:04.630Z,100232.34
2024-01-22T09:33:54.802Z,100242.97
2024-01-22T09:36:41.532Z,100235.75
2024-01-22T09:39:29.740Z,100247.59
2024-01-22T09:42:18.889Z,100217.09
2024-01-22T09:45:06.979Z,100234.41
2024-01-22T09:47:53.946Z,100224.78
2024-01-22T09:50:40.830Z,100234.06
2024-01-22T09:53:29.700Z,100230.88
2024-01-22T09:56:21.184Z,100218.97
2024-01-22T09:59:18.445Z,100230.06
2024-01-22T10:02:06.081Z,100225.47
2024-01-22T10:04:54.371Z,100211.13
2024-01-22T10:07:41.258Z,100195.16
2024-01-22T10:10:28.434Z,100179.50
2024-01-22T10:13:18.524Z,100182.97
2024-01-22T10:16:12.331Z,100170.88
2024-01-22T10:19:00.792Z,100163.13
2024-01-22T10:21:48.003Z,100157.16
2024-01-22T10:24:34.629Z,100162.75
2024-01-22T10:27:21.515Z,100163.78
2024-01-22T10:30:15.450Z,100161.72
2024-01-22T10:33:11.476Z,100136.81
2024-01-22T10:35:58.943Z,100135.78
2024-01-22T10:38:46.748Z,100133.56
2024-01-22T10:41:36.455Z,100125.94
2024-01-22T10:44:24.937Z,100130.63
2024-01-22T10:47:13.332Z,100117.88
2024-01-22T10:50:04.828Z,100122.72
2024-01-22T10:52:53.373Z,100124.47
2024-01-22T10:55:40.904Z,100114.38
2024-01-22T10:58:29.723Z,100106.44
2024-01-22T11:01:18.092Z,100076.41
2024-01-22T11:04:09.963Z,100111.97
2024-01-22T11:07:02.368Z,100111.13
2024-01-22T11:09:53.983Z,100086.56
2024-01-22T11:12:44.778Z,100081.22
2024-01-22T11:15:31.637Z,100079.34
2024-01-22T11:18:18.942Z,100075.53
2024-01-22T11:21:22.057Z,100071.28
2024-01-22T11:24:13.894Z,100058.66
2024-01-22T11:27:06.836Z,100055.69
2024-01-22T11:29:53.622Z,100053.31
2024-01-22T11:32:43.824Z,100055.00
2024-01-22T11:35:37.610Z,100036.59
2024-01-22T11:38:53.365Z,100032.72
2024-01-22T11:41:42.449Z,100037.69
2024-01-22T11:44:29.236Z,100020.56
2024-01-22T11:47:16.591Z,100023.41
2024-01-22T11:50:06.473Z,100009.28
2024-01-22T11:53:01.218Z,100038.00
2024-01-22T11:56:02.683Z,100013.69
2024-01-22T11:58:49.582Z,100040.38
2024-01-22T12:01:36.558Z,100018.56
2024-01-22T12:04:23.796Z,100036.47
2024-01-22T12:07:10.729Z,100026.06
2024-01-22T12:09:57.244Z,100026.44
2024-01-22T12:12:50.762Z,100020.59
2024-01-22T12:15:37.334Z,100018.81
2024-01-22T12:18:25.278Z,100017.72
2024-01-22T12:21:13.226Z,100021.31
2024-01-22T12:23:59.754Z,100019.00
2024-01-22T12:26:46.795Z,100026.56
2024-01-22T12:29:34.967Z,100012.84
2024-01-22T12:32:21.899Z,100016.03
2024-01-22T12:35:09.920Z,100006.06
2024-01-22T12:37:56.988Z,100019.13
2024-01-22T12:40:44.015Z,100019.00
2024-01-22T12:43:31.000Z,100002.72
2024-01-22T12:46:21.134Z,99998.97
2024-01-22T12:49:08.744Z,100001.78
2024-01-22T12:51:55.489Z,99975.66
2024-01-22T12:54:42.443Z,99982.75
2024-01-22T12:57:29.280Z,99978.75
2024-01-22T13:00:17.270Z,99981.78
2024-01-22T13:03:05.728Z,99979.34
2024-01-22T13:05:52.866Z,99973.38
2024-01-22T13:08:39.774Z,99975.19
2024-01-22T13:11:26.660Z,99965.00
2024-01-22T13:14:13.497Z,99962.63
2024-01-22T13:17:02.734Z,99952.38
2024-01-22T13:19:50.833Z,99937.34
2024-01-22T13:22:37.743Z,99938.09
2024-01-22T13:25:24.605Z,99926.00
2024-01-22T13:28:11.638Z,99933.38
2024-01-22T13:30:58.429Z,99938.28
2024-01-22T13:33:50.171Z,99936.56
2024-01-22T13:36:40.396Z,99936.53
2024-01-22T13:39:27.987Z,99930.47
2024-01-22T13:42:15.008Z,99922.41
2024-01-22T13:45:01.848Z,99924.00
2024-01-22T13:47:48.959Z,99921.03
2024-01-22T13:50:35.684Z,99915.44
2024-01-22T13:53:23.872Z,99918.06
2024-01-22T13:56:10.708Z,99923.94
2024-01-22T13:58:58.068Z,99932.81
2024-01-22T14:01:44.756Z,99920.91
2024-01-22T14:04:32.701Z,99924.31
2024-01-22T14:07:19.535Z,99907.91
2024-01-22T14:10:08.987Z,99915.06
2024-01-22T14:12:55.728Z,99915.56
2024-01-22T14:15:42.668Z,99903.16
2024-01-22T14:18:29.731Z,99918.25
2024-01-22T14:21:16.737Z,99899.75
2024-01-22T14:24:03.702Z,99913.97
2024-01-22T14:26:52.228Z,99918.19
2024-01-22T14:29:39.442Z,99925.63
2024-01-22T14:32:28.610Z,99920.97
2024-01-22T14:35:15.285Z,99912.88
2024-01-22T14:38:02.250Z,99917.41
2024-01-22T14:40:49.128Z,99919.69
2024-01-22T14:43:37.350Z,99912.03
2024-01-22T14:46:27.459Z,99907.47
2024-01-22T14:49:17.440Z,99912.72
2024-01-22T14:52:05.137Z,99909.25
2024-01-22T14:54:52.245Z,99914.06
2024-01-22T14:57:40.134Z,99911.50
2024-01-22T15:00:28.507Z,99923.44
2024-01-22T15:03:15.566Z,99925.81
2024-01-22T15:06:02.437Z,99915.38
2024-01-22T15:08:50.583Z,99919.91
2024-01-22T15:11:39.737Z,99917.16
2024-01-22T15:14:28.740Z,99924.66
2024-01-22T15:17:16.967Z,99930.13
2024-01-22T15:20:04.061Z,99945.38
2024-01-22T15:22:50.717Z,99949.09
2024-01-22T15:25:37.585Z,99936.66
2024-01-22T15:28:24.384Z,99932.63
2024-01-22T15:31:12.870Z,99949.38
2024-01-22T15:34:02.771Z,99952.25
2024-01-22T15:36:49.667Z,99949.22
2024-01-22T15:39:37.204Z,99968.31
2024-01-22T15:42:24.154Z,99955.38
2024-01-22T15:45:11.934Z,99973.63
2024-01-22T15:47:58.577Z,99973.38
2024-01-22T15:50:46.829Z,99981.41
2024-01-22T15:53:34.758Z,99976.66
2024-01-22T15:56:21.758Z,99981.19
2024-01-22T15:59:09.309Z,100004.06
2024-01-22T16:01:57.116Z,100011.78
2024-01-22T16:04:44.768Z,100023.22
2024-01-22T16:07:33.124Z,100016.84
2024-01-22T16:10:19.853Z,100011.66
2024-01-22T16:13:07.024Z,100024.28
2024-01-22T16:15:55.441Z,100032.31
2024-01-22T16:18:43.176Z,100027.03
2024-01-22T16:21:30.287Z,100023.81
2024-01-22T16:24:18.609Z,100038.28
2024-01-22T16:27:06.604Z,100046.22
2024-01-22T16:30:17.497Z,100049.06
2024-01-22T16:33:12.178Z,100061.47
2024-01-22T16:36:13.161Z,100069.09
2024-01-22T16:39:08.423Z,100053.13
2024-01-22T16:42:08.527Z,100079.25
2024-01-22T16:45:10.433Z,100058.00
2024-01-22T16:48:22.553Z,100068.56
2024-01-22T16:51:19.884Z,100069.16
2024-01-22T16:54:18.263Z,100078.94
2024-01-22T16:57:07.790Z,100082.91
2024-01-22T16:59:54.542Z,100093.75
2024-01-22T17:02:42.185Z,100087.75
2024-01-22T17:05:31.964Z,100088.13
2024-01-22T17:08:20.361Z,100093.25
2024-01-22T17:11:09.712Z,100093.94
2024-01-22T17:13:59.244Z,100048.94
2024-01-22T17:16:46.594Z,100059.88
2024-01-22T17:19:34.509Z,100066.28
2024-01-22T17:22:22.386Z,100061.25
2024-01-22T17:25:11.592Z,100058.97
2024-01-22T17:27:59.906Z,100062.44
2024-01-22T17:30:48.983Z,100063.13
2024-01-22T17:33:38.320Z,100084.59
2024-01-22T17:36:25.875Z,100125.78
2024-01-22T17:39:13.175Z,100120.66
2024-01-22T17:42:01.316Z,100124.69
2024-01-22T17:44:49.048Z,100122.44
2024-01-22T17:47:38.355Z,100133.09
2024-01-22T17:50:25.566Z,100142.00
2024-01-22T17:53:12.901Z,100159.84
2024-01-22T17:55:59.611Z,100150.63
2024-01-22T17:58:46.601Z,100158.28
2024-01-22T18:01:33.387Z,100179.16
2024-01-22T18:04:21.785Z,100187.25
2024-01-22T18:07:09.526Z,100174.44
2024-01-22T18:09:56.239Z,100197.06
2024-01-22T18:12:43.391Z,100199.66
2024-01-22T18:15:30.161Z,100197.44
2024-01-22T18:18:17.219Z,100204.81
2024-01-22T18:21:06.138Z,100210.97
2024-01-22T18:23:52.844Z,100221.03
2024-01-22T18:26:39.645Z,100205.03
2024-01-22T18:29:29.484Z,100191.69
2024-01-22T18:32:16.210Z,100207.44
2024-01-22T18:35:03.430Z,100209.84
2024-01-22T18:37:52.386Z,100220.50
2024-01-22T18:40:39.530Z,100230.31
2024-01-22T18:43:27.035Z,100236.00
2024-01-22T18:46:19.670Z,100234.81
2024-01-22T18:49:09.521Z,100238.25
2024-01-22T18:51:56.335Z,100258.53
2024-01-22T18:54:44.610Z,100264.81
2024-01-22T18:57:31.301Z,100273.22
2024-01-22T19:00:19.290Z,100278.81
2024-01-22T19:03:06.080Z,100279.09
2024-01-22T19:05:52.761Z,100278.69
2024-01-22T19:08:41.228Z,100277.00
2024-01-22T19:11:30.722Z,100287.06
2024-01-22T19:14:18.093Z,100285.19
2024-01-22T19:17:06.749Z,100312.72
2024-01-22T19:19:53.514Z,100307.13
2024-01-22T19:22:41.293Z,100308.53
2024-01-22T19:25:28.486Z,100305.16
2024-01-22T19:28:16.934Z,100306.38
2024-01-22T19:31:08.696Z,100303.63
2024-01-22T19:34:01.349Z,100318.97
2024-01-22T19:36:50.392Z,100312.78
2024-01-22T19:39:37.481Z,100329.88
2024-01-22T19:42:27.176Z,100319.03
2024-01-22T19:45:15.722Z,100319.44
2024-01-22T19:48:03.645Z,100321.03
2024-01-22T19:51:00.282Z,100336.91
2024-01-22T19:53:47.907Z,100360.22
2024-01-22T19:56:42.643Z,100354.75
2024-01-22T19:59:32.983Z,100352.06
2024-01-22T20:02:21.492Z,100369.50
2024-01-22T20:05:09.005Z,100381.22
2024-01-22T20:07:56.812Z,100386.91
2024-01-22T20:10:46.177Z,100396.13
2024-01-22T20:13:34.650Z,100399.91
2024-01-22T20:16:21.583Z,100411.56
2024-01-22T20:19:10.175Z,100412.69
2024-01-22T20:21:56.996Z,100425.44
2024-01-22T20:24:43.628Z,100413.81
2024-01-22T20:27:30.439Z,100422.19
2024-01-22T20:30:17.518Z,100440.56
2024-01-22T20:33:04.409Z,100436.53
2024-01-22T20:35:53.567Z,100439.56
2024-01-22T20:38:40.811Z,100436.91
2024-01-22T20:41:29.784Z,100447.16
2024-01-22T20:44:16.498Z,100442.94
2024-01-22T20:47:03.552Z,100448.41
2024-01-22T20:49:50.402Z,100462.97
2024-01-22T20:52:39.786Z,100468.84
2024-01-22T20:55:28.174Z,100480.94
2024-01-22T20:58:15.499Z,100485.31
2024-01-22T21:01:07.781Z,100498.41
2024-01-22T21:03:54.945Z,100493.19
2024-01-22T21:06:43.247Z,100505.47
2024-01-22T21:09:31.312Z,100501.94
2024-01-22T21:12:18.227Z,100502.44
2024-01-22T21:15:06.016Z,100506.59
2024-01-22T21:17:53.090Z,100494.97
2024-01-22T21:20:39.986Z,100509.72
2024-01-22T21:23:27.094Z,100510.84
2024-01-22T21:26:18.027Z,100514.16
2024-01-22T21:29:06.533Z,100510.38
2024-01-22T21:31:53.603Z,100520.09
2024-01-22T21:34:40.802Z,100521.19
2024-01-22T21:37:27.502Z,100528.44
2024-01-22T21:40:14.678Z,100522.19
2024-01-22T21:43:02.721Z,100521.78
2024-01-22T21:45:49.490Z,100528.25
2024-01-22T21:48:36.486Z,100525.44
2024-01-22T21:51:23.279Z,100525.56
2024-01-22T21:54:14.291Z,100527.59
2024-01-22T21:57:02.526Z,100521.91
2024-01-22T21:59:51.753Z,100530.03
2024-01-22T22:02:39.819Z,100527.25
2024-01-22T22:05:27.281Z,100529.81
2024-01-22T22:08:14.095Z,100527.91
2024-01-22T22:11:00.866Z,100528.16
2024-01-22T22:13:47.892Z,100521.78
2024-01-22T22:16:36.369Z,100529.06
2024-01-22T22:19:23.388Z,100538.63
2024-01-22T22:22:15.215Z,100548.41
2024-01-22T22:25:02.247Z,100550.31
2024-01-22T22:27:53.193Z,100541.00
2024-01-22T22:30:40.226Z,100533.19
2024-01-22T22:33:28.770Z,100543.44
2024-01-22T22:36:17.077Z,100545.25
2024-01-22T22:39:03.712Z,100546.88
2024-01-22T22:41:50.570Z,100552.47
2024-01-22T22:44:37.462Z,100550.81
2024-01-22T22:47:24.343Z,100550.66
2024-01-22T22:50:12.724Z,100546.72
2024-01-22T22:52:59.472Z,100547.97
2024-01-22T22:55:46.570Z,100549.75
2024-01-22T22:58:33.528Z,100559.34
2024-01-22T23:01:20.094Z,100570.16
2024-01-22T23:04:07.210Z,100577.59
2024-01-22T23:06:55.216Z,100571.97
2024-01-22T23:09:42.179Z,100554.34
2024-01-22T23:12:29.155Z,100554.31
2024-01-22T23:15:16.205Z,100550.06
2024-01-22T23:18:02.929Z,100545.78
2024-01-22T23:20:49.645Z,100539.91
2024-01-22T23:23:47.505Z,100545.22
2024-01-22T23:26:35.396Z,100542.16
2024-01-22T23:29:22.382Z,100540.34
2024-01-22T23:32:10.841Z,100536.28
2024-01-22T23:34:57.681Z,100532.50
2024-01-22T23:37:49.646Z,100540.19
2024-01-22T23:40:38.096Z,100535.19
2024-01-22T23:43:24.640Z,100539.31
2024-01-22T23:46:12.798Z,100536.59
2024-01-22T23:48:59.497Z,100538.28
2024-01-22T23:51:46.194Z,100543.91
2024-01-22T23:54:33.073Z,100542.84
2024-01-22T23:57:21.299Z,100539.88
